createdAt,value
2022-08-29T00:01:05.892Z,19.10
2022-08-29T00:03:33.415Z,19.10
2022-08-29T00:06:00.520Z,19.10
2022-08-29T00:08:27.743Z,19.10
2022-08-29T00:10:55.208Z,19.10
2022-08-29T00:13:22.660Z,19.00
2022-08-29T00:15:49.673Z,19.00
2022-08-29T00:18:18.676Z,19.00
2022-08-29T00:20:46.644Z,19.10
2022-08-29T00:23:13.900Z,19.10
2022-08-29T00:25:40.987Z,19.10
2022-08-29T00:28:08.356Z,19.10
2022-08-29T00:30:36.669Z,19.10
2022-08-29T00:33:04.184Z,19.10
2022-08-29T00:35:35.277Z,19.10
2022-08-29T00:38:05.473Z,19.20
2022-08-29T00:40:37.530Z,19.20
2022-08-29T00:43:06.019Z,19.20
2022-08-29T00:45:34.040Z,19.20
2022-08-29T00:48:14.724Z,19.20
2022-08-29T00:50:49.242Z,19.20
2022-08-29T00:53:18.545Z,19.20
2022-08-29T00:55:50.429Z,19.20
2022-08-29T00:58:34.383Z,19.20
2022-08-29T01:01:01.977Z,19.20
2022-08-29T01:03:33.749Z,19.20
2022-08-29T01:06:01.355Z,19.20
2022-08-29T01:08:30.452Z,19.20
2022-08-29T01:11:16.026Z,19.10
2022-08-29T01:13:47.266Z,19.10
2022-08-29T01:16:16.273Z,19.10
2022-08-29T01:18:45.872Z,19.10
2022-08-29T01:21:24.847Z,19.10
2022-08-29T01:24:21.007Z,19.10
2022-08-29T01:26:48.422Z,19.10
2022-08-29T01:29:16.143Z,19.10
2022-08-29T01:31:56.806Z,19.20
2022-08-29T01:34:26.304Z,19.10
2022-08-29T01:36:56.358Z,19.10
2022-08-29T01:39:26.671Z,19.00
2022-08-29T01:41:55.058Z,19.10
2022-08-29T01:44:23.177Z,19.00
2022-08-29T01:46:52.379Z,19.00
2022-08-29T01:49:20.687Z,19.00
2022-08-29T01:51:47.748Z,19.00
2022-08-29T01:54:15.528Z,19.00
2022-08-29T01:56:46.088Z,19.00
2022-08-29T01:59:15.782Z,19.00
2022-08-29T02:01:57.262Z,19.00
2022-08-29T02:04:24.569Z,19.00
2022-08-29T02:06:51.853Z,19.00
2022-08-29T02:09:18.895Z,19.00
2022-08-29T02:11:46.570Z,18.90
2022-08-29T02:14:19.182Z,18.90
2022-08-29T02:16:47.863Z,18.90
2022-08-29T02:19:15.740Z,18.90
2022-08-29T02:21:43.340Z,18.90
2022-08-29T02:24:25.035Z,18.90
2022-08-29T02:26:54.633Z,18.90
2022-08-29T02:29:22.042Z,18.90
2022-08-29T02:31:49.297Z,18.90
2022-08-29T02:34:16.829Z,18.90
2022-08-29T02:36:44.628Z,18.90
2022-08-29T02:39:13.902Z,18.90
2022-08-29T02:41:41.127Z,18.90
2022-08-29T02:44:11.721Z,18.90
2022-08-29T02:46:39.240Z,18.90
2022-08-29T02:49:06.581Z,18.90
2022-08-29T02:51:34.931Z,18.90
2022-08-29T02:54:03.249Z,18.80
2022-08-29T02:56:31.133Z,18.80
2022-08-29T02:58:58.864Z,18.80
2022-08-29T03:01:27.856Z,18.80
2022-08-29T03:03:55.161Z,18.80
2022-08-29T03:06:23.077Z,18.80
2022-08-29T03:08:50.903Z,18.80
2022-08-29T03:11:18.169Z,18.80
2022-08-29T03:13:46.047Z,18.70
2022-08-29T03:16:13.648Z,18.70
2022-08-29T03:18:40.906Z,18.80
2022-08-29T03:21:15.730Z,18.70
2022-08-29T03:23:42.790Z,18.70
2022-08-29T03:26:09.785Z,18.80
2022-08-29T03:28:36.772Z,18.70
2022-08-29T03:31:03.963Z,18.70
2022-08-29T03:33:31.123Z,18.70
2022-08-29T03:35:58.353Z,18.70
2022-08-29T03:38:25.580Z,18.70
2022-08-29T03:40:53.495Z,18.60
2022-08-29T03:43:25.308Z,18.70
2022-08-29T03:45:52.997Z,18.60
2022-08-29T03:48:20.187Z,18.60
2022-08-29T03:50:47.312Z,18.50
2022-08-29T03:53:14.476Z,18.50
2022-08-29T03:55:41.815Z,18.50
2022-08-29T03:58:08.887Z,18.50
2022-08-29T04:00:36.020Z,18.40
2022-08-29T04:03:03.329Z,18.40
2022-08-29T04:05:30.306Z,18.40
2022-08-29T04:07:59.338Z,18.40
2022-08-29T04:10:31.055Z,18.40
2022-08-29T04:12:58.612Z,18.30
2022-08-29T04:15:28.126Z,18.30
2022-08-29T04:17:58.447Z,18.30
2022-08-29T04:20:28.385Z,18.30
2022-08-29T04:22:56.965Z,18.20
2022-08-29T04:25:25.517Z,18.20
2022-08-29T04:27:53.913Z,18.20
2022-08-29T04:30:24.201Z,18.20
2022-08-29T04:32:51.935Z,18.20
2022-08-29T04:35:19.969Z,18.30
2022-08-29T04:37:47.262Z,18.20
2022-08-29T04:40:18.007Z,18.20
2022-08-29T04:42:47.221Z,18.30
2022-08-29T04:45:18.986Z,18.20
2022-08-29T04:47:46.122Z,18.20
2022-08-29T04:50:19.664Z,18.20
2022-08-29T04:52:47.238Z,18.20
2022-08-29T04:55:20.825Z,18.20
2022-08-29T04:57:50.731Z,18.20
2022-08-29T05:00:21.705Z,18.20
2022-08-29T05:02:48.910Z,18.20
2022-08-29T05:05:16.851Z,18.20
2022-08-29T05:07:46.465Z,18.10
2022-08-29T05:10:18.988Z,18.20
2022-08-29T05:12:46.941Z,18.10
2022-08-29T05:15:14.935Z,18.10
2022-08-29T05:17:42.485Z,18.10
2022-08-29T05:20:10.603Z,18.10
2022-08-29T05:22:39.158Z,18.10
2022-08-29T05:25:06.855Z,18.10
2022-08-29T05:27:34.085Z,18.10
2022-08-29T05:30:02.549Z,18.10
2022-08-29T05:32:29.665Z,18.10
2022-08-29T05:34:57.755Z,18.10
2022-08-29T05:37:25.209Z,18.10
2022-08-29T05:39:52.681Z,18.10
2022-08-29T05:42:22.266Z,18.20
2022-08-29T05:44:49.723Z,18.20
2022-08-29T05:47:17.869Z,18.20
2022-08-29T05:49:46.059Z,18.20
2022-08-29T05:52:15.594Z,18.20
2022-08-29T05:54:43.987Z,18.20
2022-08-29T05:57:18.212Z,18.20
2022-08-29T05:59:51.210Z,18.20
2022-08-29T06:02:20.514Z,18.20
2022-08-29T06:04:47.747Z,18.20
2022-08-29T06:07:15.308Z,18.30
2022-08-29T06:09:43.036Z,18.40
2022-08-29T06:12:12.318Z,18.40
2022-08-29T06:14:40.161Z,18.50
2022-08-29T06:17:09.390Z,18.60
2022-08-29T06:19:39.711Z,18.70
2022-08-29T06:22:09.923Z,18.70
2022-08-29T06:24:39.074Z,18.80
2022-08-29T06:27:06.473Z,18.80
2022-08-29T06:29:34.563Z,18.80
2022-08-29T06:32:12.053Z,18.80
2022-08-29T06:34:39.347Z,18.90
2022-08-29T06:37:06.403Z,18.90
2022-08-29T06:39:33.538Z,18.90
2022-08-29T06:42:00.709Z,19.00
2022-08-29T06:44:30.980Z,19.10
2022-08-29T06:46:59.089Z,19.20
2022-08-29T06:49:27.764Z,19.20
2022-08-29T06:51:57.912Z,19.20
2022-08-29T06:54:28.022Z,19.30
2022-08-29T06:56:57.009Z,19.40
2022-08-29T06:59:24.414Z,19.40
2022-08-29T07:01:52.071Z,19.60
2022-08-29T07:04:20.627Z,19.70
2022-08-29T07:06:48.988Z,19.80
2022-08-29T07:09:16.079Z,19.90
2022-08-29T07:11:43.549Z,20.00
2022-08-29T07:14:11.172Z,20.10
2022-08-29T07:16:39.244Z,20.20
2022-08-29T07:19:07.656Z,20.30
2022-08-29T07:21:35.726Z,20.50
2022-08-29T07:24:03.279Z,20.60
2022-08-29T07:26:36.226Z,20.70
2022-08-29T07:29:06.966Z,20.70
2022-08-29T07:31:34.361Z,20.70
2022-08-29T07:34:02.141Z,20.80
2022-08-29T07:36:31.576Z,20.80
2022-08-29T07:38:58.678Z,20.90
2022-08-29T07:41:25.814Z,21.00
2022-08-29T07:43:52.921Z,21.10
2022-08-29T07:46:20.855Z,21.20
2022-08-29T07:48:48.564Z,21.30
2022-08-29T07:51:18.513Z,21.40
2022-08-29T07:53:46.989Z,21.50
2022-08-29T07:56:18.731Z,21.60
2022-08-29T07:58:46.036Z,21.70
2022-08-29T08:01:14.867Z,21.70
2022-08-29T08:03:50.215Z,21.90
2022-08-29T08:06:22.393Z,22.00
2022-08-29T08:08:50.978Z,22.10
2022-08-29T08:11:18.909Z,22.20
2022-08-29T08:13:46.223Z,22.30
2022-08-29T08:16:17.311Z,22.40
2022-08-29T08:18:45.095Z,22.60
2022-08-29T08:21:12.741Z,22.80
2022-08-29T08:23:41.382Z,22.90
2022-08-29T08:26:09.639Z,23.10
2022-08-29T08:28:36.946Z,23.30
2022-08-29T08:31:07.177Z,23.40
2022-08-29T08:33:38.736Z,23.50
2022-08-29T08:36:12.549Z,23.50
2022-08-29T08:38:39.623Z,23.40
2022-08-29T08:41:28.877Z,23.50
2022-08-29T08:44:07.371Z,23.60
2022-08-29T08:46:39.907Z,23.80
2022-08-29T08:49:18.071Z,24.10
2022-08-29T08:51:51.318Z,24.20
2022-08-29T08:54:23.775Z,24.40
2022-08-29T08:57:10.194Z,24.50
2022-08-29T08:59:43.565Z,24.50
2022-08-29T09:02:18.259Z,24.60
2022-08-29T09:05:03.506Z,24.50
2022-08-29T09:08:01.843Z,24.30
2022-08-29T09:10:30.630Z,24.50
2022-08-29T09:13:03.669Z,24.30
2022-08-29T09:15:43.226Z,24.40
2022-08-29T09:18:32.968Z,24.60
2022-08-29T09:21:10.108Z,24.90
2022-08-29T09:23:59.806Z,24.80
2022-08-29T09:26:27.407Z,24.80
2022-08-29T09:28:54.882Z,24.70
2022-08-29T09:31:29.229Z,24.50
2022-08-29T09:33:58.955Z,24.30
2022-08-29T09:36:43.467Z,24.20
2022-08-29T09:39:30.016Z,24.10
2022-08-29T09:42:11.946Z,23.90
2022-08-29T09:44:40.415Z,23.90
2022-08-29T09:47:27.374Z,23.80
2022-08-29T09:50:24.833Z,23.80
2022-08-29T09:52:51.891Z,23.70
2022-08-29T09:55:21.072Z,23.60
2022-08-29T09:58:03.655Z,23.60
2022-08-29T10:00:37.830Z,23.60
2022-08-29T10:03:10.840Z,23.60
2022-08-29T10:05:44.846Z,23.60
2022-08-29T10:08:29.843Z,23.70
2022-08-29T10:11:01.127Z,23.70
2022-08-29T10:13:38.003Z,23.80
2022-08-29T10:16:19.682Z,23.80
2022-08-29T10:19:10.225Z,23.60
2022-08-29T10:21:55.813Z,23.50
2022-08-29T10:24:25.580Z,23.50
2022-08-29T10:27:21.028Z,23.40
2022-08-29T10:29:50.824Z,23.40
2022-08-29T10:32:39.684Z,23.40
2022-08-29T10:35:28.231Z,23.50
2022-08-29T10:38:22.884Z,23.50
2022-08-29T10:41:02.654Z,23.50
2022-08-29T10:43:38.309Z,23.50
2022-08-29T10:46:38.714Z,23.50
2022-08-29T10:49:26.693Z,23.40
2022-08-29T10:52:11.472Z,23.20
2022-08-29T10:54:55.441Z,23.00
2022-08-29T10:57:54.700Z,22.80
2022-08-29T11:00:24.605Z,22.80
2022-08-29T11:03:27.133Z,22.80
2022-08-29T11:06:01.364Z,22.80
2022-08-29T11:08:38.165Z,22.60
2022-08-29T11:11:05.374Z,22.50
2022-08-29T11:13:42.962Z,22.60
2022-08-29T11:16:18.838Z,22.60
2022-08-29T11:18:55.240Z,22.60
2022-08-29T11:21:37.863Z,22.60
2022-08-29T11:24:06.838Z,22.50
2022-08-29T11:27:11.652Z,22.40
2022-08-29T11:29:56.652Z,22.40
2022-08-29T11:32:45.979Z,22.30
2022-08-29T11:35:27.982Z,22.20
2022-08-29T11:38:16.853Z,22.20
2022-08-29T11:41:32.587Z,22.10
2022-08-29T11:44:33.212Z,22.00
2022-08-29T11:47:00.489Z,22.10
2022-08-29T11:49:32.127Z,22.10
2022-08-29T11:52:17.687Z,22.00
2022-08-29T11:54:50.417Z,22.00
2022-08-29T11:57:17.319Z,22.00
2022-08-29T11:59:50.145Z,22.00
2022-08-29T12:02:32.175Z,21.90
2022-08-29T12:05:06.991Z,21.90
2022-08-29T12:07:50.537Z,21.90
2022-08-29T12:10:20.318Z,22.00
2022-08-29T12:12:53.218Z,22.00
2022-08-29T12:15:38.342Z,22.00
2022-08-29T12:18:08.479Z,22.10
2022-08-29T12:20:54.072Z,22.10
2022-08-29T12:23:36.409Z,22.10
2022-08-29T12:26:38.714Z,22.10
2022-08-29T12:29:10.501Z,22.20
2022-08-29T12:32:18.018Z,22.20
2022-08-29T12:34:57.719Z,22.20
2022-08-29T12:37:56.183Z,22.30
2022-08-29T12:40:57.088Z,22.30
2022-08-29T12:43:41.437Z,22.40
2022-08-29T12:46:39.026Z,22.50
2022-08-29T12:49:36.030Z,22.50
2022-08-29T12:52:07.457Z,22.40
2022-08-29T12:54:41.984Z,22.50
2022-08-29T12:57:22.146Z,22.50
2022-08-29T12:59:52.389Z,22.40
2022-08-29T13:02:32.518Z,22.30
2022-08-29T13:04:59.846Z,22.40
2022-08-29T13:07:29.044Z,22.50
2022-08-29T13:10:00.761Z,22.60
2022-08-29T13:12:31.896Z,22.70
2022-08-29T13:15:17.883Z,22.80
2022-08-29T13:17:48.250Z,22.90
2022-08-29T13:20:43.443Z,23.00
2022-08-29T13:23:10.521Z,22.90
2022-08-29T13:26:06.395Z,22.90
2022-08-29T13:28:36.480Z,23.10
2022-08-29T13:31:09.204Z,23.40
2022-08-29T13:33:38.336Z,23.40
2022-08-29T13:36:39.279Z,23.50
2022-08-29T13:39:18.103Z,23.70
2022-08-29T13:41:53.505Z,23.70
2022-08-29T13:44:24.596Z,23.40
2022-08-29T13:46:53.146Z,23.50
2022-08-29T13:49:27.075Z,23.50
2022-08-29T13:51:54.440Z,23.60
2022-08-29T13:54:21.802Z,23.70
2022-08-29T13:56:52.773Z,23.70
2022-08-29T13:59:22.476Z,23.70
2022-08-29T14:04:39.860Z,23.60
2022-08-29T14:07:28.388Z,23.70
2022-08-29T14:09:55.813Z,23.70
2022-08-29T14:12:33.779Z,23.80
2022-08-29T14:15:08.104Z,23.80
2022-08-29T14:17:37.155Z,23.90
2022-08-29T14:20:05.091Z,24.00
2022-08-29T14:22:32.061Z,24.10
2022-08-29T14:25:01.204Z,24.20
2022-08-29T14:27:28.214Z,24.20
2022-08-29T14:29:55.197Z,24.10
2022-08-29T14:32:24.307Z,24.10
2022-08-29T14:34:54.180Z,24.20
2022-08-29T14:37:21.401Z,24.20
2022-08-29T14:39:49.853Z,24.10
2022-08-29T14:42:17.785Z,24.00
2022-08-29T14:44:45.076Z,24.00
2022-08-29T14:47:12.732Z,24.00
2022-08-29T14:49:40.284Z,24.00
2022-08-29T14:52:07.525Z,23.90
2022-08-29T14:54:34.863Z,23.90
2022-08-29T14:57:01.956Z,23.90
2022-08-29T14:59:29.328Z,24.00
2022-08-29T15:01:56.505Z,24.00
2022-08-29T15:04:37.079Z,24.00
2022-08-29T15:07:12.371Z,24.00
2022-08-29T15:09:41.857Z,24.00
2022-08-29T15:12:09.323Z,24.00
2022-08-29T15:14:36.405Z,24.00
2022-08-29T15:17:04.450Z,24.00
2022-08-29T15:22:19.423Z,24.10
2022-08-29T15:24:46.619Z,24.20
2022-08-29T15:27:13.877Z,24.10
2022-08-29T15:29:40.937Z,24.10
2022-08-29T15:32:08.254Z,24.10
2022-08-29T15:34:35.591Z,24.10
2022-08-29T15:37:03.680Z,24.20
2022-08-29T15:39:31.081Z,24.10
2022-08-29T15:42:00.696Z,24.20
2022-08-29T15:44:28.796Z,24.20
2022-08-29T15:46:57.115Z,24.30
2022-08-29T15:49:25.631Z,24.30
2022-08-29T15:51:54.010Z,24.30
2022-08-29T15:54:22.410Z,24.30
2022-08-29T15:56:50.188Z,24.40
2022-08-29T15:59:19.022Z,24.50
2022-08-29T16:01:48.780Z,24.50
2022-08-29T16:04:18.612Z,24.40
2022-08-29T16:06:45.858Z,24.30
2022-08-29T16:09:15.613Z,24.20
2022-08-29T16:11:47.931Z,24.20
2022-08-29T16:14:47.173Z,24.20
2022-08-29T16:17:04.456Z,24.20
2022-08-29T16:19:31.632Z,24.10
2022-08-29T16:22:00.208Z,24.20
2022-08-29T16:24:31.908Z,24.20
2022-08-29T16:27:00.383Z,24.20
2022-08-29T16:29:27.852Z,24.20
2022-08-29T16:31:58.315Z,24.20
2022-08-29T16:34:27.443Z,24.20
2022-08-29T16:36:58.828Z,24.10
2022-08-29T16:39:26.762Z,24.20
2022-08-29T16:41:54.009Z,24.10
2022-08-29T16:44:21.575Z,24.00
2022-08-29T16:46:48.581Z,23.90
2022-08-29T16:49:15.764Z,23.90
2022-08-29T16:51:42.781Z,23.90
2022-08-29T16:54:09.876Z,23.70
2022-08-29T16:56:36.950Z,23.70
2022-08-29T16:59:04.588Z,23.80
2022-08-29T17:01:43.118Z,23.70
2022-08-29T17:04:17.129Z,23.60
2022-08-29T17:06:46.679Z,23.60
2022-08-29T17:09:14.402Z,23.50
2022-08-29T17:11:41.821Z,23.40
2022-08-29T17:14:09.668Z,23.40
2022-08-29T17:16:37.800Z,23.40
2022-08-29T17:19:06.844Z,23.30
2022-08-29T17:21:34.825Z,23.20
2022-08-29T17:24:03.278Z,23.20
2022-08-29T17:26:30.959Z,23.10
2022-08-29T17:28:57.959Z,23.10
2022-08-29T17:31:24.995Z,23.00
2022-08-29T17:33:52.047Z,23.00
2022-08-29T17:36:19.419Z,22.70
2022-08-29T17:38:47.710Z,22.70
2022-08-29T17:41:19.330Z,22.60
2022-08-29T17:43:48.979Z,22.60
2022-08-29T17:46:21.892Z,22.40
2022-08-29T17:48:49.277Z,22.40
2022-08-29T17:51:16.425Z,22.40
2022-08-29T17:53:43.583Z,22.40
2022-08-29T17:56:44.887Z,22.40
2022-08-29T17:59:13.282Z,22.30
2022-08-29T18:01:40.679Z,22.20
2022-08-29T18:04:07.750Z,22.20
2022-08-29T18:06:34.917Z,22.10
2022-08-29T18:09:02.421Z,22.00
2022-08-29T18:11:31.996Z,22.00
2022-08-29T18:14:01.106Z,21.90
2022-08-29T18:16:28.247Z,21.90
2022-08-29T18:18:55.352Z,21.90
2022-08-29T18:21:22.353Z,21.90
2022-08-29T18:23:49.323Z,21.90
2022-08-29T18:26:16.366Z,21.80
2022-08-29T18:28:43.711Z,21.80
2022-08-29T18:31:11.836Z,21.50
2022-08-29T18:34:00.068Z,21.40
2022-08-29T18:36:29.158Z,21.30
2022-08-29T18:38:56.133Z,21.30
2022-08-29T18:41:23.151Z,21.20
2022-08-29T18:43:51.906Z,21.20
2022-08-29T18:46:19.801Z,21.20
2022-08-29T18:48:47.051Z,21.20
2022-08-29T18:51:15.144Z,21.10
2022-08-29T18:53:42.554Z,21.00
2022-08-29T18:56:10.231Z,21.00
2022-08-29T18:58:38.043Z,21.10
2022-08-29T19:01:26.918Z,21.10
2022-08-29T19:04:00.037Z,21.10
2022-08-29T19:06:28.164Z,21.00
2022-08-29T19:08:56.802Z,20.90
2022-08-29T19:11:25.171Z,20.80
2022-08-29T19:13:52.969Z,20.80
2022-08-29T19:16:22.713Z,20.80
2022-08-29T19:18:50.533Z,20.70
2022-08-29T19:21:17.595Z,20.70
2022-08-29T19:23:52.146Z,20.50
2022-08-29T19:26:29.222Z,20.50
2022-08-29T19:28:59.219Z,20.40
2022-08-29T19:31:28.013Z,20.40
2022-08-29T19:33:55.509Z,20.50
2022-08-29T19:36:23.548Z,20.50
2022-08-29T19:38:51.070Z,20.40
2022-08-29T19:41:18.754Z,20.40
2022-08-29T19:43:45.906Z,20.50
2022-08-29T19:46:16.640Z,20.40
2022-08-29T19:48:48.528Z,20.30
2022-08-29T19:51:21.183Z,20.30
2022-08-29T19:53:49.045Z,20.30
2022-08-29T19:56:17.537Z,20.30
2022-08-29T19:58:44.746Z,20.30
2022-08-29T20:01:11.989Z,20.30
2022-08-29T20:03:41.987Z,20.20
2022-08-29T20:06:10.580Z,20.20
2022-08-29T20:08:41.687Z,20.10
2022-08-29T20:11:21.149Z,20.00
2022-08-29T20:13:51.194Z,19.90
2022-08-29T20:16:21.521Z,19.90
2022-08-29T20:18:49.388Z,19.80
2022-08-29T20:21:17.572Z,19.80
2022-08-29T20:23:49.386Z,19.80
2022-08-29T20:26:20.148Z,19.80
2022-08-29T20:28:48.944Z,19.70
2022-08-29T20:31:16.317Z,19.80
2022-08-29T20:33:44.881Z,19.80
2022-08-29T20:36:31.031Z,19.80
2022-08-29T20:38:58.546Z,19.70
2022-08-29T20:41:25.867Z,19.60
2022-08-29T20:43:52.892Z,19.50
2022-08-29T20:46:20.131Z,19.60
2022-08-29T20:48:47.320Z,19.60
2022-08-29T20:51:14.372Z,19.40
2022-08-29T20:53:41.881Z,19.30
2022-08-29T20:56:09.765Z,19.20
2022-08-29T20:58:36.889Z,19.30
2022-08-29T21:01:04.240Z,19.30
2022-08-29T21:03:49.872Z,19.40
2022-08-29T21:06:21.932Z,19.40
2022-08-29T21:08:49.260Z,19.40
2022-08-29T21:11:16.345Z,19.30
2022-08-29T21:13:43.724Z,19.30
2022-08-29T21:16:11.662Z,19.20
2022-08-29T21:18:39.239Z,19.10
2022-08-29T21:21:06.811Z,19.10
2022-08-29T21:23:34.408Z,19.10
2022-08-29T21:26:02.077Z,19.10
2022-08-29T21:28:32.885Z,19.10
2022-08-29T21:31:09.561Z,19.10
2022-08-29T21:33:46.131Z,19.10
2022-08-29T21:36:22.924Z,19.10
2022-08-29T21:39:07.315Z,19.10
2022-08-29T21:41:41.454Z,19.00
2022-08-29T21:44:13.561Z,18.90
2022-08-29T21:46:48.544Z,18.90
2022-08-29T21:49:19.618Z,19.00
2022-08-29T21:51:50.503Z,19.00
2022-08-29T21:54:19.153Z,19.00
2022-08-29T21:56:50.307Z,19.00
2022-08-29T21:59:29.235Z,19.00
2022-08-29T22:01:57.357Z,19.00
2022-08-29T22:04:30.524Z,19.00
2022-08-29T22:07:01.205Z,19.00
2022-08-29T22:09:34.865Z,18.80
2022-08-29T22:12:04.257Z,18.80
2022-08-29T22:14:50.552Z,18.90
2022-08-29T22:17:18.526Z,18.80
2022-08-29T22:19:48.960Z,18.80
2022-08-29T22:22:17.336Z,18.70
2022-08-29T22:24:47.716Z,18.80
2022-08-29T22:27:18.026Z,18.70
2022-08-29T22:29:48.014Z,18.80
2022-08-29T22:32:15.888Z,18.80
2022-08-29T22:34:45.231Z,18.70
2022-08-29T22:37:13.067Z,18.70
2022-08-29T22:39:45.763Z,18.70
2022-08-29T22:42:13.838Z,18.70
2022-08-29T22:45:03.668Z,18.60
2022-08-29T22:47:35.998Z,18.60
2022-08-29T22:50:09.162Z,18.60
2022-08-29T22:52:41.395Z,18.60
2022-08-29T22:55:15.270Z,18.60
2022-08-29T22:57:45.678Z,18.50
2022-08-29T23:00:26.908Z,18.40
2022-08-29T23:02:55.141Z,18.30
2022-08-29T23:05:30.200Z,18.30
2022-08-29T23:07:58.522Z,18.30
2022-08-29T23:10:28.945Z,18.30
2022-08-29T23:12:58.856Z,18.30
2022-08-29T23:15:31.407Z,18.30
2022-08-29T23:18:03.135Z,18.40
2022-08-29T23:20:33.253Z,18.20
2022-08-29T23:23:01.981Z,18.30
2022-08-29T23:25:30.210Z,18.30
2022-08-29T23:28:01.563Z,18.20
2022-08-29T23:30:34.555Z,18.20
2022-08-29T23:33:02.617Z,18.20
2022-08-29T23:35:30.389Z,18.20
2022-08-29T23:38:01.281Z,18.20
2022-08-29T23:40:31.961Z,18.20
2022-08-29T23:43:00.232Z,18.20
2022-08-29T23:45:30.756Z,18.20
2022-08-29T23:48:01.455Z,18.20
2022-08-29T23:50:29.776Z,18.10
2022-08-29T23:53:02.716Z,18.10
2022-08-29T23:55:30.652Z,18.10
2022-08-29T23:57:58.697Z,18.00
